createdAt,value
2022-12-01T00:00:21.912Z,102304.16
2022-12-01T00:03:14.439Z,102310.10
2022-12-01T00:06:10.788Z,102310.60
2022-12-01T00:09:20.800Z,102307.08
2022-12-01T00:12:13.059Z,102310.73
2022-12-01T00:15:07.649Z,102319.74
2022-12-01T00:18:01.651Z,102321.27
2022-12-01T00:20:56.248Z,102320.30
2022-12-01T00:23:49.448Z,102322.77
2022-12-01T00:26:42.040Z,102325.96
2022-12-01T00:29:34.186Z,102324.85
2022-12-01T00:32:26.481Z,102327.81
2022-12-01T00:35:19.400Z,102332.02
2022-12-01T00:38:11.536Z,102334.59
2022-12-01T00:41:03.993Z,102333.11
2022-12-01T00:43:56.250Z,102334.27
2022-12-01T00:46:48.514Z,102336.16
2022-12-01T00:50:24.150Z,102329.15
2022-12-01T00:53:29.590Z,102330.49
2022-12-01T00:56:25.594Z,102335.40
2022-12-01T00:59:21.213Z,102336.90
2022-12-01T01:02:27.759Z,102339.64
2022-12-01T01:05:28.277Z,102338.17
2022-12-01T01:08:23.610Z,102342.71
2022-12-01T01:11:23.475Z,102347.10
2022-12-01T01:14:19.101Z,102352.46
2022-12-01T01:17:17.493Z,102357.23
2022-12-01T01:20:13.856Z,102354.13
2022-12-01T01:23:07.316Z,102356.70
2022-12-01T01:26:11.144Z,102354.39
2022-12-01T01:29:08.101Z,102352.61
2022-12-01T01:32:07.579Z,102349.64
2022-12-01T01:35:01.203Z,102353.91
2022-12-01T01:38:04.139Z,102357.20
2022-12-01T01:40:58.695Z,102363.99
2022-12-01T01:44:04.512Z,102362.45
2022-12-01T01:47:10.779Z,102362.98
2022-12-01T01:50:27.319Z,102360.85
2022-12-01T01:53:36.764Z,102363.58
2022-12-01T01:56:41.221Z,102360.92
2022-12-01T01:59:39.090Z,102363.30
2022-12-01T02:02:40.801Z,102371.16
2022-12-01T02:05:37.558Z,102373.48
2022-12-01T02:08:30.268Z,102373.39
2022-12-01T02:11:59.815Z,102373.67
2022-12-01T02:15:14.713Z,102373.80
2022-12-01T02:18:26.000Z,102375.29
2022-12-01T02:21:35.953Z,102370.48
2022-12-01T02:24:54.130Z,102374.91
2022-12-01T02:28:17.382Z,102369.77
2022-12-01T02:31:20.388Z,102375.33
2022-12-01T02:34:20.679Z,102379.05
2022-12-01T02:37:23.470Z,102377.19
2022-12-01T02:40:25.353Z,102375.55
2022-12-01T02:43:31.211Z,102384.92
2022-12-01T02:46:35.522Z,102391.98
2022-12-01T02:49:34.188Z,102395.73
2022-12-01T02:52:28.207Z,102393.39
2022-12-01T02:55:20.700Z,102391.67
2022-12-01T02:58:17.909Z,102394.41
2022-12-01T03:01:33.471Z,102397.36
2022-12-01T03:04:48.033Z,102393.79
2022-12-01T03:07:53.780Z,102390.12
2022-12-01T03:10:52.779Z,102398.06
2022-12-01T03:13:57.690Z,102400.68
2022-12-01T03:17:01.928Z,102397.11
2022-12-01T03:20:00.292Z,102397.41
2022-12-01T03:22:57.743Z,102397.34
2022-12-01T03:25:53.873Z,102395.27
2022-12-01T03:28:55.199Z,102401.59
2022-12-01T03:31:58.165Z,102402.64
2022-12-01T03:34:59.674Z,102397.86
2022-12-01T03:37:59.411Z,102401.38
2022-12-01T03:40:56.643Z,102400.77
2022-12-01T03:44:01.616Z,102396.82
2022-12-01T03:47:05.793Z,102397.35
2022-12-01T03:50:03.563Z,102394.08
2022-12-01T03:53:07.255Z,102395.91
2022-12-01T03:56:04.460Z,102399.37
2022-12-01T03:59:03.002Z,102403.89
2022-12-01T04:02:03.185Z,102402.96
2022-12-01T04:05:02.309Z,102404.98
2022-12-01T04:07:55.370Z,102405.20
2022-12-01T04:10:50.291Z,102404.52
2022-12-01T04:13:45.631Z,102402.52
2022-12-01T04:16:42.579Z,102404.08
2022-12-01T04:19:35.945Z,102402.63
2022-12-01T04:22:32.678Z,102411.13
2022-12-01T04:25:26.594Z,102408.61
2022-12-01T04:28:19.137Z,102408.17
2022-12-01T04:31:14.860Z,102407.42
2022-12-01T04:34:10.829Z,102405.83
2022-12-01T04:37:03.739Z,102401.41
2022-12-01T04:39:59.267Z,102399.23
2022-12-01T04:42:55.817Z,102402.90
2022-12-01T04:45:49.179Z,102403.61
2022-12-01T04:48:43.807Z,102406.25
2022-12-01T04:51:42.462Z,102405.17
2022-12-01T04:54:35.520Z,102399.89
2022-12-01T04:57:30.532Z,102391.45
2022-12-01T05:00:26.765Z,102383.22
2022-12-01T05:03:23.620Z,102385.60
2022-12-01T05:06:24.157Z,102384.98
2022-12-01T05:09:21.264Z,102387.20
2022-12-01T05:12:15.245Z,102386.13
2022-12-01T05:15:11.923Z,102389.73
2022-12-01T05:18:06.279Z,102394.68
2022-12-01T05:21:04.556Z,102393.09
2022-12-01T05:23:57.464Z,102397.77
2022-12-01T05:26:53.137Z,102394.98
2022-12-01T05:29:46.019Z,102401.22
2022-12-01T05:32:41.068Z,102401.20
2022-12-01T05:35:34.140Z,102407.65
2022-12-01T05:38:29.262Z,102404.63
2022-12-01T05:41:26.749Z,102400.55
2022-12-01T05:44:19.450Z,102396.12
2022-12-01T05:47:14.878Z,102395.50
2022-12-01T05:50:14.406Z,102393.63
2022-12-01T05:53:10.733Z,102390.66
2022-12-01T05:56:06.766Z,102397.48
2022-12-01T05:59:00.962Z,102396.52
2022-12-01T06:01:57.592Z,102395.55
2022-12-01T06:04:53.870Z,102390.50
2022-12-01T06:07:49.956Z,102388.23
2022-12-01T06:10:47.934Z,102391.42
2022-12-01T06:13:48.227Z,102401.27
2022-12-01T06:16:43.737Z,102407.44
2022-12-01T06:19:38.952Z,102412.11
2022-12-01T06:22:35.527Z,102418.48
2022-12-01T06:25:33.089Z,102417.34
2022-12-01T06:28:27.731Z,102422.11
2022-12-01T06:31:22.521Z,102425.19
2022-12-01T06:34:34.588Z,102428.84
2022-12-01T06:37:34.331Z,102432.77
2022-12-01T06:40:33.755Z,102430.64
2022-12-01T06:43:27.014Z,102431.90
2022-12-01T06:46:21.035Z,102437.66
2022-12-01T06:49:28.383Z,102439.87
2022-12-01T06:52:26.472Z,102441.91
2022-12-01T06:55:20.718Z,102446.73
2022-12-01T06:58:19.602Z,102446.55
2022-12-01T07:01:14.585Z,102445.18
2022-12-01T07:04:19.124Z,102446.96
2022-12-01T07:07:17.002Z,102445.39
2022-12-01T07:10:19.904Z,102448.19
2022-12-01T07:13:12.722Z,102446.80
2022-12-01T07:16:12.541Z,102443.58
2022-12-01T07:19:07.535Z,102442.26
2022-12-01T07:22:35.019Z,102438.31
2022-12-01T07:25:42.311Z,102438.67
2022-12-01T07:29:06.240Z,102440.13
2022-12-01T07:31:56.076Z,102441.40
2022-12-01T07:34:54.192Z,102440.22
2022-12-01T07:38:22.351Z,102437.91
2022-12-01T07:45:30.230Z,102436.28
2022-12-01T07:48:49.071Z,102436.40
2022-12-01T07:51:42.694Z,102433.92
2022-12-01T07:59:18.563Z,102434.45
2022-12-01T09:22:39.432Z,102474.07
2022-12-01T09:25:36.180Z,102467.62
2022-12-01T09:42:47.974Z,102469.83
2022-12-01T09:54:33.893Z,102477.92
2022-12-01T09:57:52.641Z,102478.46
2022-12-01T10:05:05.811Z,102486.58
2022-12-01T10:08:15.675Z,102483.73
2022-12-01T10:15:39.629Z,102491.04
2022-12-01T10:23:26.513Z,102484.22
2022-12-01T10:26:39.778Z,102478.16
2022-12-01T10:30:12.361Z,102477.16
2022-12-01T10:33:23.059Z,102473.55
2022-12-01T12:00:32.725Z,102402.11
2022-12-01T12:12:11.167Z,102402.89
2022-12-01T12:33:23.940Z,102396.94
2022-12-01T12:37:53.924Z,102394.88
2022-12-01T12:42:20.177Z,102398.11
2022-12-01T12:45:51.493Z,102399.33
2022-12-01T13:19:14.242Z,102379.15
2022-12-01T17:04:25.388Z,102360.45
2022-12-01T17:07:37.757Z,102361.83
2022-12-01T17:10:31.358Z,102365.35
2022-12-01T17:14:19.508Z,102365.35
2022-12-01T17:17:12.195Z,102368.83
2022-12-01T17:20:05.818Z,102370.85
2022-12-01T17:23:16.382Z,102370.96
2022-12-01T17:26:13.459Z,102371.95
2022-12-01T17:29:08.245Z,102371.52
2022-12-01T17:32:02.126Z,102376.02
2022-12-01T17:34:56.770Z,102379.06
2022-12-01T17:37:52.137Z,102379.92
2022-12-01T17:41:03.177Z,102380.78
2022-12-01T17:43:55.446Z,102384.93
2022-12-01T17:46:47.806Z,102382.20
2022-12-01T17:49:40.722Z,102379.20
2022-12-01T17:52:35.053Z,102384.17
2022-12-01T17:55:30.565Z,102383.86
2022-12-01T17:58:26.395Z,102384.61
2022-12-01T18:01:29.949Z,102384.27
2022-12-01T18:04:25.943Z,102384.48
2022-12-01T18:07:23.274Z,102382.77
2022-12-01T18:10:43.324Z,102380.92
2022-12-01T18:13:48.706Z,102376.48
2022-12-01T18:16:54.599Z,102374.71
2022-12-01T18:19:50.809Z,102375.34
2022-12-01T18:23:05.609Z,102370.95
2022-12-01T18:26:25.087Z,102371.65
2022-12-01T18:29:24.183Z,102371.20
2022-12-01T18:32:17.217Z,102370.41
2022-12-01T18:35:17.572Z,102370.38
2022-12-01T18:38:12.790Z,102364.94
2022-12-01T18:41:46.912Z,102364.06
2022-12-01T18:45:19.408Z,102368.34
2022-12-01T18:48:30.107Z,102369.92
2022-12-01T18:51:23.763Z,102370.64
2022-12-01T18:54:38.264Z,102371.23
2022-12-01T18:57:55.834Z,102365.48
2022-12-01T19:04:50.536Z,102366.14
2022-12-01T19:07:45.171Z,102366.58
2022-12-01T19:10:40.413Z,102366.85
2022-12-01T19:13:38.285Z,102365.52
2022-12-01T19:16:33.266Z,102361.56
2022-12-01T19:19:37.777Z,102362.44
2022-12-01T19:22:49.824Z,102360.58
2022-12-01T19:28:31.668Z,102356.91
2022-12-01T19:30:34.924Z,102354.34
2022-12-01T19:33:54.638Z,102355.23
2022-12-01T19:40:33.388Z,102352.77
2022-12-01T19:43:26.023Z,102345.48
2022-12-01T19:46:30.654Z,102344.73
2022-12-01T19:49:24.436Z,102343.95
2022-12-01T19:52:29.640Z,102342.59
2022-12-01T19:55:24.842Z,102343.94
2022-12-01T19:58:19.609Z,102342.08
2022-12-01T20:01:18.423Z,102343.10
2022-12-01T20:04:11.031Z,102340.98
2022-12-01T20:07:06.566Z,102344.34
2022-12-01T20:09:59.167Z,102345.31
2022-12-01T20:13:04.440Z,102345.71
2022-12-01T20:16:04.802Z,102348.29
2022-12-01T20:19:01.241Z,102347.83
2022-12-01T20:21:55.030Z,102349.16
2022-12-01T20:24:52.440Z,102341.81
2022-12-01T20:27:45.683Z,102343.80
2022-12-01T20:30:43.274Z,102337.86
2022-12-01T20:33:40.792Z,102335.20
2022-12-01T20:36:37.848Z,102333.27
2022-12-01T20:39:34.807Z,102337.85
2022-12-01T20:42:31.016Z,102340.44
2022-12-01T20:45:25.839Z,102344.29
2022-12-01T20:48:21.978Z,102344.79
2022-12-01T20:51:17.335Z,102346.17
2022-12-01T20:54:30.813Z,102349.70
2022-12-01T20:57:23.385Z,102346.65
2022-12-01T21:00:19.972Z,102348.19
2022-12-01T21:03:12.976Z,102354.21
2022-12-01T21:06:06.451Z,102355.82
2022-12-01T21:27:57.830Z,102352.48
2022-12-01T21:30:52.247Z,102351.14
2022-12-01T21:33:47.814Z,102348.20
2022-12-01T21:36:43.110Z,102348.62
2022-12-01T21:39:58.818Z,102342.10
2022-12-01T21:43:23.478Z,102338.34
2022-12-01T21:46:21.121Z,102335.97
2022-12-01T21:49:33.355Z,102328.37
2022-12-01T21:52:36.158Z,102327.04
2022-12-01T21:55:49.624Z,102326.22
2022-12-01T21:58:53.119Z,102326.52
2022-12-01T22:01:50.825Z,102328.55
2022-12-01T22:04:50.716Z,102329.45
2022-12-01T22:07:45.938Z,102326.95
2022-12-01T22:10:55.567Z,102326.23
2022-12-01T22:13:52.638Z,102329.20
2022-12-01T22:16:46.904Z,102329.63
2022-12-01T22:19:47.874Z,102328.76
2022-12-01T22:22:42.501Z,102326.34
2022-12-01T22:25:35.360Z,102331.05
2022-12-01T22:28:27.788Z,102333.20
2022-12-01T22:31:25.711Z,102335.27
2022-12-01T22:34:23.696Z,102336.00
2022-12-01T22:37:18.940Z,102333.02
2022-12-01T22:40:37.123Z,102335.07
2022-12-01T22:43:48.549Z,102336.49
2022-12-01T22:46:43.291Z,102335.30
2022-12-01T22:49:45.823Z,102331.80
2022-12-01T22:52:39.696Z,102333.63
2022-12-01T22:55:32.117Z,102333.79
2022-12-01T22:58:34.307Z,102333.55
2022-12-01T23:01:35.746Z,102333.14
2022-12-01T23:04:31.542Z,102336.75
2022-12-01T23:07:42.042Z,102335.38
2022-12-01T23:10:41.533Z,102335.52
2022-12-01T23:17:14.857Z,102333.22
2022-12-01T23:24:44.902Z,102330.95
2022-12-01T23:31:35.156Z,102326.92
2022-12-01T23:35:09.976Z,102327.77
2022-12-01T23:38:05.047Z,102333.51
2022-12-01T23:41:01.631Z,102334.02
2022-12-01T23:43:57.569Z,102338.20
2022-12-01T23:46:54.421Z,102335.66
2022-12-01T23:49:47.333Z,102332.77
2022-12-01T23:52:54.164Z,102337.12
2022-12-01T23:56:04.377Z,102336.27
2022-12-01T23:59:37.329Z,102332.95
